sensor_id;sensor_type;location;lat;lon;timestamp;P1;durP1;ratioP1;P2;durP2;ratioP2
63959;SDS011;50136;51.374;0.096;2023-06-22T00:09:36;10.02;;;5.57;;
63959;SDS011;50136;51.374;0.096;2023-06-22T00:19:40;11.00;;;5.38;;
63959;SDS011;50136;51.374;0.096;2023-06-22T00:29:42;9.10;;;5.10;;
63959;SDS011;50136;51.374;0.096;2023-06-22T00:39:45;13.05;;;5.47;;
63959;SDS011;50136;51.374;0.096;2023-06-22T00:49:47;10.60;;;5.72;;
63959;SDS011;50136;51.374;0.096;2023-06-22T00:59:51;8.43;;;6.18;;
63959;SDS011;50136;51.374;0.096;2023-06-22T01:09:55;6.20;;;5.32;;
63959;SDS011;50136;51.374;0.096;2023-06-22T01:20:06;8.95;;;6.25;;
63959;SDS011;50136;51.374;0.096;2023-06-22T01:30:12;13.38;;;6.00;;
63959;SDS011;50136;51.374;0.096;2023-06-22T01:40:17;9.43;;;5.80;;
63959;SDS011;50136;51.374;0.096;2023-06-22T01:50:22;7.07;;;5.32;;
63959;SDS011;50136;51.374;0.096;2023-06-22T02:00:24;9.13;;;7.07;;
63959;SDS011;50136;51.374;0.096;2023-06-22T02:10:31;7.88;;;5.45;;
63959;SDS011;50136;51.374;0.096;2023-06-22T02:20:36;7.47;;;5.15;;
63959;SDS011;50136;51.374;0.096;2023-06-22T02:30:39;10.25;;;5.05;;
63959;SDS011;50136;51.374;0.096;2023-06-22T02:40:41;6.82;;;4.80;;
63959;SDS011;50136;51.374;0.096;2023-06-22T02:50:45;9.82;;;6.55;;
63959;SDS011;50136;51.374;0.096;2023-06-22T03:00:47;12.00;;;7.53;;
63959;SDS011;50136;51.374;0.096;2023-06-22T03:10:50;8.57;;;4.85;;
63959;SDS011;50136;51.374;0.096;2023-06-22T03:20:52;8.43;;;5.47;;
63959;SDS011;50136;51.374;0.096;2023-06-22T03:30:57;7.18;;;6.22;;
63959;SDS011;50136;51.374;0.096;2023-06-22T03:40:59;12.32;;;5.45;;
63959;SDS011;50136;51.374;0.096;2023-06-22T03:51:02;9.65;;;5.40;;
63959;SDS011;50136;51.374;0.096;2023-06-22T04:01:05;7.72;;;5.15;;
63959;SDS011;50136;51.374;0.096;2023-06-22T04:11:08;10.18;;;6.05;;
63959;SDS011;50136;51.374;0.096;2023-06-22T04:21:10;11.68;;;6.15;;
63959;SDS011;50136;51.374;0.096;2023-06-22T04:31:13;10.18;;;6.25;;
63959;SDS011;50136;51.374;0.096;2023-06-22T04:41:16;10.18;;;5.75;;
63959;SDS011;50136;51.374;0.096;2023-06-22T04:51:19;8.00;;;6.47;;
63959;SDS011;50136;51.374;0.096;2023-06-22T05:01:21;13.02;;;6.43;;
63959;SDS011;50136;51.374;0.096;2023-06-22T05:11:25;8.77;;;5.70;;
63959;SDS011;50136;51.374;0.096;2023-06-22T05:21:27;13.18;;;6.82;;
63959;SDS011;50136;51.374;0.096;2023-06-22T05:31:30;8.30;;;5.82;;
63959;SDS011;50136;51.374;0.096;2023-06-22T05:41:32;11.20;;;6.47;;
63959;SDS011;50136;51.374;0.096;2023-06-22T05:51:36;11.40;;;6.10;;
63959;SDS011;50136;51.374;0.096;2023-06-22T06:01:38;7.90;;;5.60;;
63959;SDS011;50136;51.374;0.096;2023-06-22T06:11:41;18.50;;;8.57;;
63959;SDS011;50136;51.374;0.096;2023-06-22T06:21:43;13.13;;;7.13;;
63959;SDS011;50136;51.374;0.096;2023-06-22T06:31:47;13.43;;;6.75;;
63959;SDS011;50136;51.374;0.096;2023-06-22T06:41:49;10.02;;;6.35;;
63959;SDS011;50136;51.374;0.096;2023-06-22T06:51:52;10.45;;;6.90;;
63959;SDS011;50136;51.374;0.096;2023-06-22T07:01:54;10.43;;;6.53;;
63959;SDS011;50136;51.374;0.096;2023-06-22T07:11:58;15.43;;;7.63;;
63959;SDS011;50136;51.374;0.096;2023-06-22T07:22:00;9.65;;;7.00;;
63959;SDS011;50136;51.374;0.096;2023-06-22T07:32:04;11.95;;;7.18;;
63959;SDS011;50136;51.374;0.096;2023-06-22T07:42:06;11.85;;;6.30;;
63959;SDS011;50136;51.374;0.096;2023-06-22T07:52:10;12.77;;;7.88;;
63959;SDS011;50136;51.374;0.096;2023-06-22T08:02:12;9.48;;;7.10;;
63959;SDS011;50136;51.374;0.096;2023-06-22T08:12:16;7.78;;;6.28;;
63959;SDS011;50136;51.374;0.096;2023-06-22T08:22:18;10.02;;;5.35;;
63959;SDS011;50136;51.374;0.096;2023-06-22T08:32:21;7.10;;;5.38;;
63959;SDS011;50136;51.374;0.096;2023-06-22T08:42:24;9.38;;;4.43;;
63959;SDS011;50136;51.374;0.096;2023-06-22T08:52:27;10.02;;;5.00;;
63959;SDS011;50136;51.374;0.096;2023-06-22T09:02:29;7.63;;;5.53;;
63959;SDS011;50136;51.374;0.096;2023-06-22T09:12:33;8.63;;;4.18;;
63959;SDS011;50136;51.374;0.096;2023-06-22T09:22:35;4.90;;;4.28;;
63959;SDS011;50136;51.374;0.096;2023-06-22T09:32:39;5.70;;;4.10;;
63959;SDS011;50136;51.374;0.096;2023-06-22T09:42:41;5.78;;;4.72;;
63959;SDS011;50136;51.374;0.096;2023-06-22T09:52:44;6.47;;;4.03;;
63959;SDS011;50136;51.374;0.096;2023-06-22T10:02:49;7.05;;;4.22;;
63959;SDS011;50136;51.374;0.096;2023-06-22T10:12:56;5.97;;;4.38;;
63959;SDS011;50136;51.374;0.096;2023-06-22T10:22:58;7.18;;;4.68;;
63959;SDS011;50136;51.374;0.096;2023-06-22T10:33:02;9.40;;;4.93;;
63959;SDS011;50136;51.374;0.096;2023-06-22T10:43:04;5.57;;;4.00;;
63959;SDS011;50136;51.374;0.096;2023-06-22T10:53:07;5.68;;;3.65;;
63959;SDS011;50136;51.374;0.096;2023-06-22T11:03:09;4.30;;;3.47;;
63959;SDS011;50136;51.374;0.096;2023-06-22T11:13:16;6.87;;;4.13;;
63959;SDS011;50136;51.374;0.096;2023-06-22T11:23:18;6.93;;;4.93;;
63959;SDS011;50136;51.374;0.096;2023-06-22T11:33:21;5.95;;;3.85;;
63959;SDS011;50136;51.374;0.096;2023-06-22T11:43:23;6.90;;;3.90;;
63959;SDS011;50136;51.374;0.096;2023-06-22T11:53:28;5.15;;;3.88;;
63959;SDS011;50136;51.374;0.096;2023-06-22T12:03:31;6.32;;;3.97;;
63959;SDS011;50136;51.374;0.096;2023-06-22T12:13:34;5.85;;;4.10;;
63959;SDS011;50136;51.374;0.096;2023-06-22T12:23:36;5.50;;;3.50;;
63959;SDS011;50136;51.374;0.096;2023-06-22T12:33:40;6.63;;;3.70;;
63959;SDS011;50136;51.374;0.096;2023-06-22T12:43:42;5.75;;;3.72;;
63959;SDS011;50136;51.374;0.096;2023-06-22T12:53:45;5.35;;;3.22;;
63959;SDS011;50136;51.374;0.096;2023-06-22T13:03:47;4.93;;;3.47;;
63959;SDS011;50136;51.374;0.096;2023-06-22T13:13:51;6.38;;;3.80;;
63959;SDS011;50136;51.374;0.096;2023-06-22T13:23:53;4.85;;;3.45;;
63959;SDS011;50136;51.374;0.096;2023-06-22T13:33:56;5.35;;;3.60;;
63959;SDS011;50136;51.374;0.096;2023-06-22T13:43:58;3.78;;;3.30;;
63959;SDS011;50136;51.374;0.096;2023-06-22T13:54:02;4.65;;;3.72;;
63959;SDS011;50136;51.374;0.096;2023-06-22T14:04:04;6.63;;;2.85;;
63959;SDS011;50136;51.374;0.096;2023-06-22T14:14:08;3.58;;;3.00;;
63959;SDS011;50136;51.374;0.096;2023-06-22T14:24:10;5.85;;;3.47;;
63959;SDS011;50136;51.374;0.096;2023-06-22T14:34:13;6.60;;;2.97;;
63959;SDS011;50136;51.374;0.096;2023-06-22T14:44:16;5.55;;;2.90;;
63959;SDS011;50136;51.374;0.096;2023-06-22T14:54:19;4.72;;;2.78;;
63959;SDS011;50136;51.374;0.096;2023-06-22T15:04:21;6.32;;;2.70;;
63959;SDS011;50136;51.374;0.096;2023-06-22T15:14:25;6.30;;;2.92;;
63959;SDS011;50136;51.374;0.096;2023-06-22T15:24:28;4.57;;;3.28;;
63959;SDS011;50136;51.374;0.096;2023-06-22T15:34:31;6.25;;;2.90;;
63959;SDS011;50136;51.374;0.096;2023-06-22T15:44:33;5.93;;;3.45;;
63959;SDS011;50136;51.374;0.096;2023-06-22T15:54:37;4.20;;;3.03;;
63959;SDS011;50136;51.374;0.096;2023-06-22T16:04:39;6.55;;;3.08;;
63959;SDS011;50136;51.374;0.096;2023-06-22T16:14:42;7.55;;;3.15;;
63959;SDS011;50136;51.374;0.096;2023-06-22T16:24:44;3.80;;;3.28;;
63959;SDS011;50136;51.374;0.096;2023-06-22T16:34:48;6.70;;;3.22;;
63959;SDS011;50136;51.374;0.096;2023-06-22T16:44:50;8.15;;;3.58;;
63959;SDS011;50136;51.374;0.096;2023-06-22T16:54:53;3.58;;;2.83;;
63959;SDS011;50136;51.374;0.096;2023-06-22T17:05:02;6.13;;;3.30;;
63959;SDS011;50136;51.374;0.096;2023-06-22T17:15:06;8.10;;;3.35;;
63959;SDS011;50136;51.374;0.096;2023-06-22T17:25:11;5.50;;;3.17;;
63959;SDS011;50136;51.374;0.096;2023-06-22T17:35:16;3.83;;;2.17;;
63959;SDS011;50136;51.374;0.096;2023-06-22T17:45:20;5.40;;;2.67;;
63959;SDS011;50136;51.374;0.096;2023-06-22T17:55:25;4.10;;;2.70;;
63959;SDS011;50136;51.374;0.096;2023-06-22T18:05:27;4.22;;;2.63;;
63959;SDS011;50136;51.374;0.096;2023-06-22T18:15:32;3.95;;;3.10;;
63959;SDS011;50136;51.374;0.096;2023-06-22T18:25:35;9.27;;;2.63;;
63959;SDS011;50136;51.374;0.096;2023-06-22T18:46:49;6.97;;;5.10;;
63959;SDS011;50136;51.374;0.096;2023-06-22T18:56:52;3.85;;;2.60;;
63959;SDS011;50136;51.374;0.096;2023-06-22T19:06:56;9.15;;;4.13;;
63959;SDS011;50136;51.374;0.096;2023-06-22T19:16:59;6.95;;;3.58;;
63959;SDS011;50136;51.374;0.096;2023-06-22T19:27:02;7.05;;;3.78;;
63959;SDS011;50136;51.374;0.096;2023-06-22T19:48:12;8.05;;;4.32;;
63959;SDS011;50136;51.374;0.096;2023-06-22T19:58:21;4.47;;;3.17;;
63959;SDS011;50136;51.374;0.096;2023-06-22T20:08:25;12.97;;;6.57;;
63959;SDS011;50136;51.374;0.096;2023-06-22T20:19:39;7.07;;;4.50;;
63959;SDS011;50136;51.374;0.096;2023-06-22T20:29:29;5.30;;;4.03;;
63959;SDS011;50136;51.374;0.096;2023-06-22T21:00:42;12.48;;;8.02;;
63959;SDS011;50136;51.374;0.096;2023-06-22T21:10:44;7.80;;;5.20;;
63959;SDS011;50136;51.374;0.096;2023-06-22T21:20:48;7.07;;;4.53;;
63959;SDS011;50136;51.374;0.096;2023-06-22T21:30:50;6.72;;;4.28;;
63959;SDS011;50136;51.374;0.096;2023-06-22T21:40:53;7.00;;;3.72;;
63959;SDS011;50136;51.374;0.096;2023-06-22T21:50:55;5.30;;;4.13;;
63959;SDS011;50136;51.374;0.096;2023-06-22T22:00:59;8.65;;;4.57;;
63959;SDS011;50136;51.374;0.096;2023-06-22T22:11:01;6.03;;;4.22;;
63959;SDS011;50136;51.374;0.096;2023-06-22T22:21:04;6.88;;;4.18;;
63959;SDS011;50136;51.374;0.096;2023-06-22T22:41:43;4.88;;;3.47;;
63959;SDS011;50136;51.374;0.096;2023-06-22T22:51:45;6.88;;;4.07;;
63959;SDS011;50136;51.374;0.096;2023-06-22T23:01:49;4.90;;;3.38;;
63959;SDS011;50136;51.374;0.096;2023-06-22T23:11:51;7.57;;;4.70;;
63959;SDS011;50136;51.374;0.096;2023-06-22T23:21:54;5.75;;;4.15;;
63959;SDS011;50136;51.374;0.096;2023-06-22T23:31:56;5.85;;;4.00;;
63959;SDS011;50136;51.374;0.096;2023-06-22T23:42:00;6.05;;;4.40;;
63959;SDS011;50136;51.374;0.096;2023-06-22T23:52:02;7.70;;;4.55;;
